Time;durP1;ratioP1;P1;durP2;ratioP2;P2;SDS_P1;SDS_P2;PMS_P1;PMS_P2;Temp;Humidity;BMP_temperature;BMP_pressure;BME280_temperature;BME280_humidity;BME280_pressure;Samples;Min_cycle;Max_cycle;Signal;HPM_P1;HPM_P2
2021/09/01 00:01:01;;;;;;;8.32;1.73;;;;;;;;;;5041846;28;20435;-69
2021/09/01 00:03:28;;;;;;;6.72;1.38;;;;;;;;;;5036539;28;20465;-68
2021/09/01 00:05:55;;;;;;;10.32;2.00;;;;;;;;;;5035710;28;20060;-69
2021/09/01 00:08:22;;;;;;;7.15;1.73;;;;;;;;;;5034852;28;20037;-68
2021/09/01 00:10:52;;;;;;;3.72;1.45;;;;;;;;;;5045398;28;20055;-69
2021/09/01 00:13:19;;;;;;;4.65;1.00;;;;;;;;;;5040605;28;20445;-68
2021/09/01 00:15:46;;;;;;;8.45;1.63;;;;;;;;;;5031718;28;20486;-71
2021/09/01 00:18:14;;;;;;;5.00;1.33;;;;;;;;;;5035500;28;20025;-69
2021/09/01 00:20:41;;;;;;;5.50;1.17;;;;;;;;;;5044781;28;20092;-68
2021/09/01 00:23:14;;;;;;;8.15;1.40;;;;;;;;;;5035051;28;20030;-69
2021/09/01 00:25:42;;;;;;;2.88;1.00;;;;;;;;;;5032973;28;20034;-68
2021/09/01 00:28:09;;;;;;;5.32;0.85;;;;;;;;;;5036251;28;20406;-69
2021/09/01 00:30:37;;;;;;;6.45;0.80;;;;;;;;;;5035214;28;20022;-69
2021/09/01 00:33:04;;;;;;;2.70;0.70;;;;;;;;;;5033797;28;20075;-68
2021/09/01 00:35:31;;;;;;;4.68;1.65;;;;;;;;;;5034155;28;20041;-69
2021/09/01 00:37:58;;;;;;;2.75;0.82;;;;;;;;;;5034931;28;20437;-68
2021/09/01 00:40:28;;;;;;;3.35;0.82;;;;;;;;;;5037059;28;20378;-69
2021/09/01 00:42:55;;;;;;;4.32;1.13;;;;;;;;;;5041877;28;20436;-69
2021/09/01 00:45:23;;;;;;;7.30;1.10;;;;;;;;;;5036992;28;20025;-69
2021/09/01 00:47:50;;;;;;;4.00;1.10;;;;;;;;;;5043947;28;20048;-68
2021/09/01 00:50:17;;;;;;;5.68;1.02;;;;;;;;;;5036368;28;20513;-68
2021/09/01 00:52:44;;;;;;;5.57;1.20;;;;;;;;;;5035482;28;20546;-68
2021/09/01 00:55:12;;;;;;;7.15;1.58;;;;;;;;;;5041128;28;20112;-69
2021/09/01 00:57:41;;;;;;;4.65;0.95;;;;;;;;;;5044954;28;20028;-68
2021/09/01 01:00:11;;;;;;;4.53;1.17;;;;;;;;;;5036402;28;20538;-69
2021/09/01 01:02:39;;;;;;;5.47;1.30;;;;;;;;;;5036057;28;20065;-67
2021/09/01 01:05:06;;;;;;;4.00;1.60;;;;;;;;;;5035981;28;20036;-68
2021/09/01 01:07:33;;;;;;;6.30;1.00;;;;;;;;;;5036683;28;20101;-67
2021/09/01 01:10:01;;;;;;;2.85;1.00;;;;;;;;;;5032176;28;20104;-68
2021/09/01 01:12:28;;;;;;;5.22;0.98;;;;;;;;;;5038659;28;20595;-68
2021/09/01 01:14:55;;;;;;;4.70;1.65;;;;;;;;;;5041700;28;20024;-68
2021/09/01 01:17:23;;;;;;;5.47;1.25;;;;;;;;;;5049286;28;20095;-68
2021/09/01 01:19:51;;;;;;;5.53;1.50;;;;;;;;;;5043315;28;20029;-69
2021/09/01 01:22:19;;;;;;;5.97;1.30;;;;;;;;;;5048222;28;20156;-68
2021/09/01 01:24:49;;;;;;;8.38;1.10;;;;;;;;;;5037619;28;20025;-68
2021/09/01 01:27:22;;;;;;;4.57;1.38;;;;;;;;;;5029879;28;20021;-68
2021/09/01 01:29:50;;;;;;;5.40;1.58;;;;;;;;;;5032437;28;20088;-68
2021/09/01 01:32:17;;;;;;;7.65;1.95;;;;;;;;;;5032163;28;20378;-69
2021/09/01 01:34:44;;;;;;;4.32;1.08;;;;;;;;;;5031007;28;20036;-68
2021/09/01 01:37:11;;;;;;;5.13;1.13;;;;;;;;;;5031957;28;20547;-69
2021/09/01 01:39:38;;;;;;;2.92;0.70;;;;;;;;;;5038769;28;20490;-69
2021/09/01 01:42:06;;;;;;;3.53;1.20;;;;;;;;;;5031998;28;20025;-69
2021/09/01 01:44:33;;;;;;;3.45;1.00;;;;;;;;;;5039188;28;20025;-68
2021/09/01 01:47:02;;;;;;;5.47;1.33;;;;;;;;;;5051740;28;20124;-68
2021/09/01 01:49:29;;;;;;;5.28;1.20;;;;;;;;;;5043396;28;20048;-68
2021/09/01 01:51:56;;;;;;;2.80;0.85;;;;;;;;;;5032101;28;20024;-69
2021/09/01 01:54:23;;;;;;;3.35;0.80;;;;;;;;;;5031490;28;20029;-69
2021/09/01 01:56:50;;;;;;;2.78;0.80;;;;;;;;;;5031037;28;20465;-69
2021/09/01 01:59:17;;;;;;;5.35;0.98;;;;;;;;;;5040165;28;20049;-69
2021/09/01 02:01:45;;;;;;;3.65;0.60;;;;;;;;;;5049025;28;20017;-68
2021/09/01 02:04:12;;;;;;;3.45;0.90;;;;;;;;;;5033822;28;20033;-68
2021/09/01 02:06:39;;;;;;;3.88;1.08;;;;;;;;;;5032153;28;20029;-68
2021/09/01 02:09:06;;;;;;;5.50;1.15;;;;;;;;;;5031266;28;20048;-68
2021/09/01 02:11:33;;;;;;;2.95;0.80;;;;;;;;;;5047207;28;20458;-68
2021/09/01 02:14:00;;;;;;;5.43;0.90;;;;;;;;;;5033664;28;20108;-69
2021/09/01 02:16:28;;;;;;;3.47;1.00;;;;;;;;;;5033340;28;20029;-68
2021/09/01 02:18:55;;;;;;;7.32;1.80;;;;;;;;;;5031933;28;20068;-68
2021/09/01 02:21:22;;;;;;;8.07;1.08;;;;;;;;;;5040403;28;20026;-69
2021/09/01 02:23:49;;;;;;;8.65;1.35;;;;;;;;;;5037043;28;21009;-68
2021/09/01 02:26:16;;;;;;;4.88;1.40;;;;;;;;;;5036163;28;20033;-68
2021/09/01 02:28:44;;;;;;;2.90;0.93;;;;;;;;;;5035649;28;20067;-68
2021/09/01 02:31:11;;;;;;;2.45;0.80;;;;;;;;;;5034866;28;20059;-70
2021/09/01 02:33:38;;;;;;;3.47;0.90;;;;;;;;;;5038313;28;20079;-68
2021/09/01 02:36:05;;;;;;;4.18;0.80;;;;;;;;;;5054355;28;20029;-69
2021/09/01 02:38:32;;;;;;;2.03;0.70;;;;;;;;;;5035668;28;20413;-69
2021/09/01 02:40:59;;;;;;;6.78;1.10;;;;;;;;;;5039258;28;20021;-68
2021/09/01 02:43:26;;;;;;;4.40;0.70;;;;;;;;;;5033620;28;20025;-69
2021/09/01 02:45:54;;;;;;;6.03;0.90;;;;;;;;;;5037753;28;20025;-69
2021/09/01 02:48:21;;;;;;;5.15;0.80;;;;;;;;;;5047299;28;20056;-70
2021/09/01 02:50:48;;;;;;;6.65;1.20;;;;;;;;;;5035627;28;20061;-69
2021/09/01 02:53:16;;;;;;;4.03;0.90;;;;;;;;;;5037731;28;20087;-70
2021/09/01 02:55:43;;;;;;;7.03;1.13;;;;;;;;;;5045125;28;20079;-69
2021/09/01 02:58:10;;;;;;;3.38;1.15;;;;;;;;;;5046132;28;20114;-69
2021/09/01 03:00:38;;;;;;;3.95;0.90;;;;;;;;;;5040807;28;20391;-68
2021/09/01 03:03:05;;;;;;;2.40;1.02;;;;;;;;;;5037618;28;20120;-69
2021/09/01 03:05:32;;;;;;;4.82;1.00;;;;;;;;;;5048060;28;20021;-69
2021/09/01 03:07:59;;;;;;;3.13;0.88;;;;;;;;;;5037379;28;20490;-69
2021/09/01 03:10:26;;;;;;;5.90;0.88;;;;;;;;;;5034205;28;20065;-69
2021/09/01 03:12:54;;;;;;;3.33;1.20;;;;;;;;;;5034307;28;20040;-69
2021/09/01 03:15:21;;;;;;;2.45;0.70;;;;;;;;;;5037944;28;20021;-69
2021/09/01 03:17:48;;;;;;;2.85;0.82;;;;;;;;;;5036367;28;20088;-69
2021/09/01 03:20:15;;;;;;;7.07;1.20;;;;;;;;;;5039530;28;20033;-69
2021/09/01 03:22:42;;;;;;;5.05;1.17;;;;;;;;;;5039920;28;20041;-67
2021/09/01 03:25:10;;;;;;;3.88;1.10;;;;;;;;;;5041072;28;20037;-68
2021/09/01 03:27:37;;;;;;;4.13;0.60;;;;;;;;;;5050603;28;20033;-68
2021/09/01 03:30:04;;;;;;;8.27;1.58;;;;;;;;;;5045401;28;20075;-68
2021/09/01 03:32:31;;;;;;;6.80;1.95;;;;;;;;;;5052731;28;20021;-68
2021/09/01 03:34:59;;;;;;;4.35;1.08;;;;;;;;;;5033888;28;20379;-68
2021/09/01 03:37:26;;;;;;;6.88;1.08;;;;;;;;;;5036892;28;20379;-70
2021/09/01 03:39:53;;;;;;;6.93;1.33;;;;;;;;;;5034216;28;20067;-68
2021/09/01 03:42:20;;;;;;;6.10;1.50;;;;;;;;;;5033769;28;20497;-68
2021/09/01 03:44:47;;;;;;;6.50;1.48;;;;;;;;;;5044142;28;20369;-69
2021/09/01 03:47:14;;;;;;;7.90;1.65;;;;;;;;;;5038429;28;20056;-69
2021/09/01 03:49:41;;;;;;;6.45;1.23;;;;;;;;;;5037421;28;20040;-69
2021/09/01 03:52:09;;;;;;;7.55;0.90;;;;;;;;;;5033233;28;20030;-69
2021/09/01 03:54:36;;;;;;;6.43;1.10;;;;;;;;;;5034016;28;20100;-69
2021/09/01 03:57:03;;;;;;;4.35;1.17;;;;;;;;;;5038468;28;20030;-69
2021/09/01 03:59:30;;;;;;;4.45;0.70;;;;;;;;;;5038816;28;20432;-69
2021/09/01 04:01:57;;;;;;;7.43;1.77;;;;;;;;;;5038047;28;20017;-68
2021/09/01 04:04:24;;;;;;;4.32;1.10;;;;;;;;;;5036562;28;20036;-69
2021/09/01 04:06:51;;;;;;;4.70;1.00;;;;;;;;;;5035524;28;20032;-69
2021/09/01 04:09:18;;;;;;;5.35;0.82;;;;;;;;;;5040757;28;20025;-69
2021/09/01 04:11:46;;;;;;;6.63;0.63;;;;;;;;;;5045741;28;20393;-69
2021/09/01 04:14:13;;;;;;;3.10;0.70;;;;;;;;;;5047256;28;20029;-68
2021/09/01 04:16:40;;;;;;;2.17;0.85;;;;;;;;;;5048108;28;20389;-69
2021/09/01 04:19:07;;;;;;;2.58;0.52;;;;;;;;;;5044937;28;20037;-69
2021/09/01 04:21:34;;;;;;;3.97;0.60;;;;;;;;;;5032155;28;20021;-69
2021/09/01 04:24:01;;;;;;;2.33;0.75;;;;;;;;;;5031632;28;20100;-68
2021/09/01 04:26:28;;;;;;;2.75;0.43;;;;;;;;;;5033682;28;20483;-68
2021/09/01 04:28:55;;;;;;;4.43;0.52;;;;;;;;;;5032712;28;20033;-68
2021/09/01 04:31:23;;;;;;;3.60;0.60;;;;;;;;;;5035976;28;20025;-68
2021/09/01 04:33:50;;;;;;;3.10;0.63;;;;;;;;;;5042978;28;20037;-69
2021/09/01 04:36:18;;;;;;;4.20;0.77;;;;;;;;;;5042023;28;20108;-67
2021/09/01 04:38:45;;;;;;;2.78;0.60;;;;;;;;;;5051169;28;20505;-68
2021/09/01 04:41:12;;;;;;;6.55;0.70;;;;;;;;;;5035838;28;20030;-68
2021/09/01 04:43:42;;;;;;;1.88;0.57;;;;;;;;;;5031788;28;20045;-68
2021/09/01 04:46:09;;;;;;;3.65;0.60;;;;;;;;;;5048880;28;20379;-68
2021/09/01 04:48:36;;;;;;;3.13;0.93;;;;;;;;;;5037912;28;20022;-68
2021/09/01 04:51:04;;;;;;;4.30;0.70;;;;;;;;;;5032405;28;20021;-68
2021/09/01 04:53:31;;;;;;;5.38;0.80;;;;;;;;;;5032679;28;20100;-68
2021/09/01 04:55:58;;;;;;;3.38;0.75;;;;;;;;;;5037940;28;20040;-69
2021/09/01 04:58:25;;;;;;;5.53;1.95;;;;;;;;;;5031365;28;20033;-68
2021/09/01 05:00:52;;;;;;;4.78;0.88;;;;;;;;;;5032076;28;20501;-67
2021/09/01 05:03:19;;;;;;;4.20;1.15;;;;;;;;;;5034730;28;20462;-67
2021/09/01 05:05:46;;;;;;;4.90;1.33;;;;;;;;;;5037035;28;20037;-68
2021/09/01 05:08:13;;;;;;;3.05;0.65;;;;;;;;;;5032411;28;20028;-69
2021/09/01 05:10:40;;;;;;;5.15;0.98;;;;;;;;;;5037959;28;20504;-69
2021/09/01 05:13:08;;;;;;;6.00;0.82;;;;;;;;;;5034585;28;20028;-68
2021/09/01 05:15:35;;;;;;;3.95;1.00;;;;;;;;;;5030352;28;20466;-69
2021/09/01 05:18:02;;;;;;;4.10;0.75;;;;;;;;;;5036806;28;20025;-69
2021/09/01 05:20:29;;;;;;;4.63;0.60;;;;;;;;;;5034612;28;20123;-69
2021/09/01 05:23:00;;;;;;;6.45;0.80;;;;;;;;;;5031481;28;20416;-69
2021/09/01 05:25:33;;;;;;;5.43;0.80;;;;;;;;;;5033012;28;20014;-69
2021/09/01 05:28:00;;;;;;;6.78;0.85;;;;;;;;;;5029263;28;20025;-69
2021/09/01 05:30:29;;;;;;;3.55;1.05;;;;;;;;;;5030728;28;20049;-68
2021/09/01 05:32:58;;;;;;;2.90;1.00;;;;;;;;;;5032119;28;20029;-69
2021/09/01 05:35:25;;;;;;;8.55;0.77;;;;;;;;;;5030591;28;20026;-68
2021/09/01 05:37:52;;;;;;;4.07;0.73;;;;;;;;;;5042279;28;20048;-68
2021/09/01 05:40:20;;;;;;;3.63;0.80;;;;;;;;;;5031827;28;20481;-69
2021/09/01 05:42:47;;;;;;;3.92;0.70;;;;;;;;;;5039798;28;20034;-68
2021/09/01 05:45:14;;;;;;;2.58;0.88;;;;;;;;;;5044011;28;20025;-69
2021/09/01 05:47:41;;;;;;;2.20;0.60;;;;;;;;;;5032357;28;20052;-68
2021/09/01 05:50:09;;;;;;;5.55;0.90;;;;;;;;;;5035529;28;20542;-68
2021/09/01 05:52:36;;;;;;;1.30;0.50;;;;;;;;;;5032485;28;20100;-69
2021/09/01 05:55:09;;;;;;;2.92;0.70;;;;;;;;;;5031820;28;20033;-69
2021/09/01 05:57:37;;;;;;;3.50;0.60;;;;;;;;;;5040875;28;20017;-68
2021/09/01 06:00:14;;;;;;;2.00;0.40;;;;;;;;;;5033978;28;20022;-68
2021/09/01 06:02:54;;;;;;;2.40;0.75;;;;;;;;;;5042519;28;20037;-69
2021/09/01 06:05:24;;;;;;;2.08;0.65;;;;;;;;;;5041096;28;20017;-69
2021/09/01 06:07:53;;;;;;;4.82;0.65;;;;;;;;;;5035542;28;20026;-69
2021/09/01 06:10:28;;;;;;;5.40;0.85;;;;;;;;;;5034461;28;20025;-69
2021/09/01 06:12:56;;;;;;;5.07;0.70;;;;;;;;;;5040160;28;20512;-69
2021/09/01 06:15:24;;;;;;;5.35;0.40;;;;;;;;;;5049976;28;20092;-69
2021/09/01 06:17:51;;;;;;;1.77;0.50;;;;;;;;;;5041248;28;20026;-69
2021/09/01 06:20:18;;;;;;;4.20;1.20;;;;;;;;;;5036090;28;20343;-70
2021/09/01 06:22:46;;;;;;;4.00;0.95;;;;;;;;;;5042487;28;20048;-69
2021/09/01 06:25:14;;;;;;;3.72;1.40;;;;;;;;;;5047196;28;20112;-69
2021/09/01 06:27:41;;;;;;;7.88;3.45;;;;;;;;;;5047185;28;20021;-69
2021/09/01 06:30:08;;;;;;;3.40;0.75;;;;;;;;;;5040496;28;20021;-69
2021/09/01 06:32:35;;;;;;;2.35;0.82;;;;;;;;;;5035411;28;20043;-69
2021/09/01 06:35:02;;;;;;;3.42;1.02;;;;;;;;;;5041076;28;20029;-68
2021/09/01 06:37:30;;;;;;;2.75;0.60;;;;;;;;;;5046718;28;20045;-67
2021/09/01 06:39:57;;;;;;;1.48;0.50;;;;;;;;;;5035414;28;20021;-68
2021/09/01 06:42:24;;;;;;;3.15;0.80;;;;;;;;;;5044257;28;20029;-69
2021/09/01 06:44:51;;;;;;;2.60;0.60;;;;;;;;;;5041067;28;20047;-69
2021/09/01 06:47:18;;;;;;;2.03;0.73;;;;;;;;;;5050224;28;20401;-69
2021/09/01 06:49:48;;;;;;;1.90;0.82;;;;;;;;;;5038109;28;20033;-68
2021/09/01 06:52:15;;;;;;;3.45;0.70;;;;;;;;;;5034741;28;20124;-69
2021/09/01 06:54:42;;;;;;;3.05;0.68;;;;;;;;;;5036970;28;20034;-68
2021/09/01 06:57:09;;;;;;;3.05;1.17;;;;;;;;;;5040274;28;20029;-68
2021/09/01 06:59:36;;;;;;;3.55;0.60;;;;;;;;;;5035966;28;20033;-68
2021/09/01 07:02:04;;;;;;;2.83;0.80;;;;;;;;;;5039095;28;20167;-69
2021/09/01 07:04:31;;;;;;;1.38;0.40;;;;;;;;;;5035481;28;20040;-69
2021/09/01 07:06:58;;;;;;;3.25;0.60;;;;;;;;;;5033268;28;20028;-69
2021/09/01 07:09:25;;;;;;;4.85;0.80;;;;;;;;;;5035700;28;20076;-69
2021/09/01 07:11:52;;;;;;;2.50;0.80;;;;;;;;;;5037866;28;20025;-68
2021/09/01 07:14:19;;;;;;;3.28;0.70;;;;;;;;;;5045178;28;20033;-68
2021/09/01 07:16:46;;;;;;;2.88;0.50;;;;;;;;;;5047694;28;20614;-68
2021/09/01 07:19:13;;;;;;;4.10;0.70;;;;;;;;;;5035770;28;20033;-68
2021/09/01 07:21:40;;;;;;;4.10;0.93;;;;;;;;;;5036662;28;20539;-68
2021/09/01 07:24:09;;;;;;;2.72;0.60;;;;;;;;;;5043369;28;20041;-68
2021/09/01 07:26:36;;;;;;;1.55;0.77;;;;;;;;;;5035154;28;20021;-68
2021/09/01 07:29:03;;;;;;;3.20;0.65;;;;;;;;;;5039181;28;20032;-68
2021/09/01 07:31:31;;;;;;;2.53;0.50;;;;;;;;;;5036471;28;20052;-69
2021/09/01 07:33:58;;;;;;;2.72;0.70;;;;;;;;;;5043253;28;20025;-69
2021/09/01 07:36:26;;;;;;;3.63;0.90;;;;;;;;;;5039023;28;20055;-68
2021/09/01 07:38:53;;;;;;;2.63;0.60;;;;;;;;;;5037897;28;20103;-69
2021/09/01 07:41:20;;;;;;;5.07;0.80;;;;;;;;;;5035159;28;20079;-69
2021/09/01 07:43:47;;;;;;;3.47;0.90;;;;;;;;;;5035479;28;20040;-69
2021/09/01 07:46:14;;;;;;;4.68;0.77;;;;;;;;;;5044362;28;20100;-69
2021/09/01 07:48:41;;;;;;;3.65;1.00;;;;;;;;;;5035360;28;20025;-68
2021/09/01 07:51:08;;;;;;;1.73;0.77;;;;;;;;;;5034288;28;20026;-69
2021/09/01 07:53:36;;;;;;;4.85;0.75;;;;;;;;;;5038754;28;20105;-68
2021/09/01 07:56:03;;;;;;;2.08;0.90;;;;;;;;;;5043449;28;20025;-68
2021/09/01 07:58:30;;;;;;;2.60;0.65;;;;;;;;;;5033236;28;20101;-70
2021/09/01 08:00:57;;;;;;;1.48;0.57;;;;;;;;;;5033499;28;20022;-70
2021/09/01 08:03:24;;;;;;;3.83;0.77;;;;;;;;;;5039093;28;20026;-68
2021/09/01 08:05:51;;;;;;;4.65;1.00;;;;;;;;;;5036671;28;20027;-68
2021/09/01 08:08:19;;;;;;;4.75;1.00;;;;;;;;;;5037846;28;20389;-69
2021/09/01 08:10:46;;;;;;;4.47;1.05;;;;;;;;;;5037903;28;20032;-69
2021/09/01 08:13:13;;;;;;;4.25;1.10;;;;;;;;;;5037730;28;20389;-69
2021/09/01 08:15:40;;;;;;;4.40;1.23;;;;;;;;;;5032593;28;20033;-70
2021/09/01 08:18:07;;;;;;;6.28;1.95;;;;;;;;;;5034706;28;20526;-69
2021/09/01 08:20:34;;;;;;;5.03;1.98;;;;;;;;;;5034342;28;20037;-68
2021/09/01 08:23:01;;;;;;;9.48;2.03;;;;;;;;;;5033490;28;20029;-69
2021/09/01 08:25:28;;;;;;;9.35;2.88;;;;;;;;;;5033455;28;20418;-69
2021/09/01 08:27:55;;;;;;;7.32;3.60;;;;;;;;;;5033517;28;20028;-69
2021/09/01 08:30:22;;;;;;;8.57;5.20;;;;;;;;;;5033045;28;20021;-69
2021/09/01 08:32:50;;;;;;;6.53;4.32;;;;;;;;;;5040627;28;20100;-68
2021/09/01 08:35:17;;;;;;;6.90;2.72;;;;;;;;;;5043892;28;20025;-68
2021/09/01 08:37:47;;;;;;;3.85;2.15;;;;;;;;;;5041323;28;20073;-69
2021/09/01 08:40:14;;;;;;;3.30;2.30;;;;;;;;;;5040108;28;20017;-69
2021/09/01 08:42:43;;;;;;;3.65;1.60;;;;;;;;;;5050130;28;20553;-68
2021/09/01 08:45:10;;;;;;;3.63;2.30;;;;;;;;;;5035974;28;20041;-69
2021/09/01 08:47:39;;;;;;;4.88;2.08;;;;;;;;;;5052964;28;20370;-69
2021/09/01 08:50:07;;;;;;;6.05;2.22;;;;;;;;;;5047148;28;20033;-69
2021/09/01 08:52:37;;;;;;;5.80;2.95;;;;;;;;;;5035535;28;20022;-69
2021/09/01 08:55:08;;;;;;;5.65;3.00;;;;;;;;;;5033516;28;20383;-69
2021/09/01 08:57:36;;;;;;;6.97;3.10;;;;;;;;;;5038266;28;20021;-69
2021/09/01 09:00:07;;;;;;;4.30;2.25;;;;;;;;;;5031141;28;20029;-69
2021/09/01 09:02:34;;;;;;;5.57;2.30;;;;;;;;;;5037799;28;20025;-69
2021/09/01 09:05:06;;;;;;;4.80;2.45;;;;;;;;;;5032139;28;20075;-68
2021/09/01 09:07:43;;;;;;;7.80;2.80;;;;;;;;;;5048099;28;20039;-68
2021/09/01 09:10:29;;;;;;;6.18;2.53;;;;;;;;;;5032583;28;20035;-69
2021/09/01 09:12:58;;;;;;;4.43;1.55;;;;;;;;;;5032994;28;20036;-70
2021/09/01 09:15:25;;;;;;;4.57;1.67;;;;;;;;;;5037437;28;20013;-68
2021/09/01 09:17:52;;;;;;;6.03;1.35;;;;;;;;;;5042316;28;20029;-69
2021/09/01 09:20:25;;;;;;;3.63;1.67;;;;;;;;;;5033806;28;20033;-68
2021/09/01 09:22:52;;;;;;;7.22;1.50;;;;;;;;;;5034267;28;20071;-68
2021/09/01 09:25:23;;;;;;;6.60;1.73;;;;;;;;;;5051964;28;20543;-68
2021/09/01 09:27:50;;;;;;;6.72;1.52;;;;;;;;;;5043002;28;20472;-68
2021/09/01 09:30:23;;;;;;;6.70;1.80;;;;;;;;;;5046849;28;20385;-68
2021/09/01 09:32:53;;;;;;;5.28;1.45;;;;;;;;;;5039266;28;20021;-68
2021/09/01 09:35:20;;;;;;;6.18;1.70;;;;;;;;;;5050313;28;20130;-68
2021/09/01 09:37:58;;;;;;;5.20;1.80;;;;;;;;;;5038395;28;20446;-68
2021/09/01 09:40:25;;;;;;;4.78;1.30;;;;;;;;;;5046587;28;20498;-68
2021/09/01 09:42:52;;;;;;;5.50;1.90;;;;;;;;;;5031887;28;20024;-68
2021/09/01 09:45:24;;;;;;;7.35;1.42;;;;;;;;;;5032479;28;20412;-68
2021/09/01 09:47:57;;;;;;;9.55;2.08;;;;;;;;;;5030916;28;20061;-68
2021/09/01 09:50:24;;;;;;;6.65;1.73;;;;;;;;;;5039213;28;20031;-68
2021/09/01 09:52:52;;;;;;;4.57;1.60;;;;;;;;;;5036121;28;20079;-69
2021/09/01 09:55:20;;;;;;;6.53;1.50;;;;;;;;;;5031982;28;20029;-68
2021/09/01 09:57:47;;;;;;;8.60;2.08;;;;;;;;;;5040825;28;20028;-67
2021/09/01 10:00:14;;;;;;;6.03;2.63;;;;;;;;;;5032750;28;20112;-67
2021/09/01 10:02:42;;;;;;;6.65;1.88;;;;;;;;;;5037606;28;20347;-68
2021/09/01 10:05:13;;;;;;;5.65;1.92;;;;;;;;;;5036440;28;20048;-68
2021/09/01 10:07:40;;;;;;;7.30;2.85;;;;;;;;;;5047719;28;20037;-68
2021/09/01 10:10:08;;;;;;;7.00;2.70;;;;;;;;;;5049715;28;20028;-68
2021/09/01 10:12:37;;;;;;;6.50;2.38;;;;;;;;;;5040248;28;20017;-69
2021/09/01 10:15:05;;;;;;;7.97;3.00;;;;;;;;;;5030553;28;20053;-68
2021/09/01 10:17:33;;;;;;;5.30;2.05;;;;;;;;;;5048539;28;20029;-68
2021/09/01 10:20:00;;;;;;;7.10;2.60;;;;;;;;;;5033877;28;20101;-68
2021/09/01 10:22:27;;;;;;;7.97;2.95;;;;;;;;;;5036634;28;20019;-68
2021/09/01 10:24:54;;;;;;;6.80;2.97;;;;;;;;;;5045352;28;20040;-68
2021/09/01 10:27:24;;;;;;;5.68;2.85;;;;;;;;;;5038972;28;20033;-68
2021/09/01 10:29:59;;;;;;;7.57;3.47;;;;;;;;;;5032641;28;20018;-68
2021/09/01 10:32:52;;;;;;;9.77;3.47;;;;;;;;;;5031037;28;20532;-69
2021/09/01 10:35:19;;;;;;;10.10;3.55;;;;;;;;;;5032948;28;20255;-68
2021/09/01 10:37:46;;;;;;;7.20;3.28;;;;;;;;;;5035889;28;20395;-69
2021/09/01 10:40:15;;;;;;;7.75;3.65;;;;;;;;;;5047228;28;20377;-69
2021/09/01 10:42:43;;;;;;;7.47;3.38;;;;;;;;;;5051946;28;20017;-68
2021/09/01 10:45:15;;;;;;;7.05;3.90;;;;;;;;;;5045085;28;20116;-69
2021/09/01 10:48:05;;;;;;;9.35;4.95;;;;;;;;;;5033759;28;20033;-67
2021/09/01 10:50:32;;;;;;;9.02;4.22;;;;;;;;;;5033448;28;20054;-68
2021/09/01 10:53:03;;;;;;;7.47;4.25;;;;;;;;;;5041000;28;20025;-68
2021/09/01 10:55:31;;;;;;;9.77;4.70;;;;;;;;;;5055909;28;20025;-68
2021/09/01 10:58:19;;;;;;;8.75;4.93;;;;;;;;;;5049424;28;20036;-68
2021/09/01 11:00:51;;;;;;;9.35;4.25;;;;;;;;;;5054141;28;20024;-68
2021/09/01 11:03:29;;;;;;;8.35;4.65;;;;;;;;;;5048443;28;20049;-68
2021/09/01 11:05:56;;;;;;;7.50;4.68;;;;;;;;;;5054257;28;20418;-68
2021/09/01 11:08:24;;;;;;;10.90;5.90;;;;;;;;;;5042669;28;20021;-68
2021/09/01 11:10:57;;;;;;;6.88;5.03;;;;;;;;;;5035975;28;20592;-68
2021/09/01 11:13:44;;;;;;;12.02;5.32;;;;;;;;;;5035665;28;20033;-68
2021/09/01 11:16:24;;;;;;;10.32;5.53;;;;;;;;;;5035579;28;20026;-69
2021/09/01 11:19:05;;;;;;;7.80;5.47;;;;;;;;;;5036581;28;20025;-69
2021/09/01 11:21:33;;;;;;;16.40;6.13;;;;;;;;;;5034039;28;20030;-68
2021/09/01 11:24:00;;;;;;;11.15;6.30;;;;;;;;;;5049641;28;20033;-67
2021/09/01 11:26:28;;;;;;;10.50;5.72;;;;;;;;;;5035215;28;20036;-68
2021/09/01 11:28:56;;;;;;;10.57;5.22;;;;;;;;;;5040467;28;20025;-67
2021/09/01 11:31:23;;;;;;;10.95;5.18;;;;;;;;;;5035970;28;20030;-68
2021/09/01 11:33:53;;;;;;;10.98;4.85;;;;;;;;;;5051076;28;20033;-69
2021/09/01 11:36:22;;;;;;;11.43;5.60;;;;;;;;;;5035133;28;20109;-68
2021/09/01 11:38:50;;;;;;;13.10;4.80;;;;;;;;;;5036714;28;20068;-68
2021/09/01 11:41:22;;;;;;;9.75;4.50;;;;;;;;;;5042653;28;20590;-68
2021/09/01 11:43:54;;;;;;;8.25;4.90;;;;;;;;;;5039649;28;20112;-68
2021/09/01 11:46:21;;;;;;;9.88;4.80;;;;;;;;;;5044320;28;20018;-68
2021/09/01 11:48:48;;;;;;;9.77;5.30;;;;;;;;;;5039294;28;20474;-68
2021/09/01 11:51:20;;;;;;;15.55;5.97;;;;;;;;;;5040478;28;20128;-68
2021/09/01 11:53:47;;;;;;;9.20;4.47;;;;;;;;;;5033950;28;20116;-68
2021/09/01 11:56:14;;;;;;;12.98;5.18;;;;;;;;;;5037543;28;20402;-68
2021/09/01 11:58:42;;;;;;;12.45;5.07;;;;;;;;;;5039618;28;20025;-68
2021/09/01 12:01:13;;;;;;;10.80;5.47;;;;;;;;;;5043462;28;20029;-68
2021/09/01 12:03:40;;;;;;;11.63;4.95;;;;;;;;;;5036843;28;20021;-68
2021/09/01 12:06:09;;;;;;;10.65;5.07;;;;;;;;;;5033626;28;20433;-68
2021/09/01 12:08:43;;;;;;;11.80;5.60;;;;;;;;;;5033279;28;20060;-68
2021/09/01 12:11:10;;;;;;;10.00;5.30;;;;;;;;;;5035661;28;20033;-68
2021/09/01 12:13:41;;;;;;;9.75;5.20;;;;;;;;;;5048781;28;20051;-68
2021/09/01 12:16:09;;;;;;;10.85;5.53;;;;;;;;;;5034986;28;20072;-68
2021/09/01 12:18:56;;;;;;;10.13;5.45;;;;;;;;;;5039886;28;20036;-68
2021/09/01 12:21:41;;;;;;;8.60;4.68;;;;;;;;;;5041143;28;20078;-68
2021/09/01 12:24:09;;;;;;;14.82;5.95;;;;;;;;;;5052834;28;20033;-68
2021/09/01 12:26:50;;;;;;;12.38;6.35;;;;;;;;;;5049058;28;20132;-68
2021/09/01 12:29:24;;;;;;;11.18;5.47;;;;;;;;;;5040011;28;20056;-68
2021/09/01 12:31:51;;;;;;;14.38;5.47;;;;;;;;;;5039658;28;20025;-69
2021/09/01 12:34:25;;;;;;;9.30;4.75;;;;;;;;;;5043238;28;20109;-68
2021/09/01 12:37:18;;;;;;;14.60;5.55;;;;;;;;;;5040843;28;20088;-68
2021/09/01 12:39:47;;;;;;;10.48;5.07;;;;;;;;;;5043067;28;20106;-68
2021/09/01 12:42:25;;;;;;;8.77;4.15;;;;;;;;;;5050729;28;20047;-69
2021/09/01 12:45:00;;;;;;;8.68;4.72;;;;;;;;;;5036721;28;20029;-68
2021/09/01 12:47:28;;;;;;;9.98;4.25;;;;;;;;;;5043065;28;20025;-68
2021/09/01 12:49:55;;;;;;;11.13;5.15;;;;;;;;;;5040601;28;20733;-68
2021/09/01 12:52:23;;;;;;;14.13;4.95;;;;;;;;;;5050552;28;20074;-68
2021/09/01 12:54:52;;;;;;;9.75;4.60;;;;;;;;;;5052339;28;20025;-68
2021/09/01 12:57:19;;;;;;;10.18;4.75;;;;;;;;;;5048159;28;20029;-69
2021/09/01 12:59:46;;;;;;;11.07;4.95;;;;;;;;;;5035764;28;20057;-68
2021/09/01 13:02:14;;;;;;;13.38;4.85;;;;;;;;;;5043152;28;20029;-68
2021/09/01 13:04:41;;;;;;;8.98;4.13;;;;;;;;;;5032665;28;20030;-68
2021/09/01 13:07:09;;;;;;;9.73;3.58;;;;;;;;;;5032953;28;20060;-69
2021/09/01 13:09:37;;;;;;;10.73;3.97;;;;;;;;;;5039958;28;20026;-68
2021/09/01 13:12:05;;;;;;;7.40;4.10;;;;;;;;;;5031539;28;20029;-69
2021/09/01 13:14:32;;;;;;;7.90;3.70;;;;;;;;;;5031282;28;20075;-68
2021/09/01 13:17:00;;;;;;;9.57;3.80;;;;;;;;;;5032373;28;20113;-68
2021/09/01 13:19:27;;;;;;;14.13;4.28;;;;;;;;;;5033232;28;20021;-68
2021/09/01 13:21:57;;;;;;;13.27;5.00;;;;;;;;;;5046040;28;20108;-69
2021/09/01 13:24:24;;;;;;;10.50;4.65;;;;;;;;;;5031410;28;20037;-68
2021/09/01 13:26:51;;;;;;;12.10;4.45;;;;;;;;;;5032274;28;20034;-68
2021/09/01 13:29:18;;;;;;;10.57;4.50;;;;;;;;;;5035187;28;20047;-68
2021/09/01 13:31:45;;;;;;;8.57;4.78;;;;;;;;;;5031981;28;20108;-68
2021/09/01 13:34:16;;;;;;;8.70;4.80;;;;;;;;;;5032428;28;20096;-68
2021/09/01 13:36:43;;;;;;;7.57;3.85;;;;;;;;;;5032158;28;20017;-69
2021/09/01 13:39:10;;;;;;;6.20;3.40;;;;;;;;;;5037776;28;20378;-69
2021/09/01 13:41:37;;;;;;;8.27;3.90;;;;;;;;;;5050234;28;20029;-69
2021/09/01 13:44:05;;;;;;;7.35;4.03;;;;;;;;;;5041285;28;20029;-68
2021/09/01 13:46:33;;;;;;;8.32;4.22;;;;;;;;;;5035149;28;20113;-68
2021/09/01 13:49:01;;;;;;;7.72;3.45;;;;;;;;;;5031567;28;20049;-68
2021/09/01 13:51:28;;;;;;;12.23;4.38;;;;;;;;;;5038837;28;20021;-68
2021/09/01 13:53:56;;;;;;;11.73;3.65;;;;;;;;;;5051357;28;20053;-69
2021/09/01 13:56:23;;;;;;;8.90;3.28;;;;;;;;;;5042505;28;20071;-68
2021/09/01 13:58:50;;;;;;;6.82;3.67;;;;;;;;;;5032128;28;20023;-68
2021/09/01 14:01:17;;;;;;;9.20;3.47;;;;;;;;;;5039262;28;20052;-68
2021/09/01 14:03:45;;;;;;;6.90;3.30;;;;;;;;;;5050079;28;20025;-68
2021/09/01 14:06:12;;;;;;;8.13;3.17;;;;;;;;;;5043682;28;20057;-68
2021/09/01 14:08:39;;;;;;;8.10;3.50;;;;;;;;;;5043300;28;20022;-68
2021/09/01 14:11:07;;;;;;;5.72;3.58;;;;;;;;;;5050835;28;20056;-68
2021/09/01 14:13:35;;;;;;;10.45;3.72;;;;;;;;;;5033222;28;20041;-68
2021/09/01 14:16:03;;;;;;;9.60;3.28;;;;;;;;;;5031209;28;20040;-68
2021/09/01 14:18:30;;;;;;;8.48;3.50;;;;;;;;;;5034125;28;20022;-68
2021/09/01 14:20:58;;;;;;;9.02;4.38;;;;;;;;;;5048328;28;20063;-68
2021/09/01 14:23:25;;;;;;;8.65;3.50;;;;;;;;;;5042694;28;20044;-68
2021/09/01 14:25:53;;;;;;;10.07;4.55;;;;;;;;;;5039950;28;20021;-68
2021/09/01 14:28:23;;;;;;;8.88;4.53;;;;;;;;;;5046685;28;20025;-68
2021/09/01 14:30:50;;;;;;;10.50;4.18;;;;;;;;;;5035378;28;20030;-68
2021/09/01 14:33:18;;;;;;;9.98;3.65;;;;;;;;;;5035655;28;20433;-68
2021/09/01 14:35:45;;;;;;;10.77;3.92;;;;;;;;;;5046421;28;20394;-68
2021/09/01 14:38:12;;;;;;;10.75;4.90;;;;;;;;;;5046754;28;20088;-68
2021/09/01 14:40:40;;;;;;;7.93;3.58;;;;;;;;;;5037015;28;20398;-68
2021/09/01 14:43:07;;;;;;;9.00;3.45;;;;;;;;;;5039636;28;20034;-67
2021/09/01 14:45:35;;;;;;;6.93;3.40;;;;;;;;;;5035562;28;20076;-67
2021/09/01 14:48:02;;;;;;;9.80;3.55;;;;;;;;;;5035339;28;20424;-68